Terminal Aerodrome Forecast
Issued by NWS

Home | Current Version | Previous Version | Text Only | Print | Product List | Glossary On
Versions: 1 2 3 4 5 6 7 8 9 10 11 12
000
FTUS44 KTSA 280500
TAFXNA
TAF
KXNA 280520Z 2806/2906 00000KT P6SM FEW250
     FM281400 17007KT P6SM SCT250
     FM281700 16009KT P6SM SCT050
     FM290200 14004KT P6SM SCT250=

USA.gov is the U.S. government's official web portal to all federal, state and local government web resources and services.